Flight Track Log - Related Links

Times and Time Zones

All times are in EDT time to prevent confusion due to time zone crossing. See the DAL268 flight status page for this flight to view local times or setup timezone preferences in your user account.

Time Position Orientation Groundspeed Altitude Reporting Facility
EDT Latitude Longitude Course Direction KTS MPH feet Rate Location/Type
Wed 06:30:53 PM 33.6353 -84.3133 86° East 443 510 3,600  Level Atlanta Center
Wed 06:31:53 PM 33.6375 -84.2233 88° East 334 384 7,000 3,050 Climbing Atlanta Center
Wed 06:32:00 PM 33.8632 -84.1313 101° East  Level Estimated
Wed 06:32:53 PM 33.6378 -84.1286 90° East 291 335 9,700  Level Atlanta Center
Wed 06:33:00 PM 33.8063 -84.0157 121° Southeast  Level FlightAware Approximate
Wed 06:33:53 PM 33.6378 -84.0339 90° East 301 346 12,200  Level Atlanta Center
Wed 06:34:00 PM 33.7493 -83.9002 121° Southeast  Level FlightAware Approximate
Wed 06:34:53 PM 33.6397 -83.9239 89° East 313 360 14,100  Level Atlanta Center
Wed 06:35:00 PM 33.8261 -83.8028 64° Northeast  Level Estimated
Wed 06:35:53 PM 33.6481 -83.8267 84° East 323 372 15,800  Level Atlanta Center
Wed 06:36:00 PM 33.8342 -83.6687 86° East  Level FlightAware Approximate
Wed 06:36:53 PM 33.6917 -83.7117 65° Northeast 350 403 16,800  Level Atlanta Center
Wed 06:37:53 PM 33.7411 -83.5817 65° Northeast 402 463 18,000 1,500 Climbing Atlanta Center
Wed 06:38:53 PM 33.7908 -83.4514 65° Northeast 424 488 19,800 1,750 Climbing Atlanta Center
Wed 06:39:53 PM 33.8400 -83.3086 67° East 445 512 21,500 1,800 Climbing Atlanta Center
Wed 06:40:53 PM 33.8933 -83.1678 65° Northeast 453 521 23,400 1,700 Climbing Atlanta Center
Wed 06:41:53 PM 33.9361 -83.0197 71° East 459 528 24,900 1,550 Climbing Atlanta Center
Wed 06:42:53 PM 33.9639 -82.8667 78° East 459 528 26,500 1,750 Climbing Atlanta Center
Wed 06:43:53 PM 33.9914 -82.6958 79° East 468 539 28,400 1,650 Climbing Atlanta Center
Wed 06:44:53 PM 34.0147 -82.5450 79° East 468 539 29,800 1,150 Climbing Atlanta Center
Wed 06:45:53 PM 34.0442 -82.3967 76° East 463 533 30,700 750 Climbing Atlanta Center
Wed 06:46:53 PM 34.0711 -82.2408 78° East 463 533 31,300 600 Climbing Atlanta Center
Wed 06:47:53 PM 34.0958 -82.0822 79° East 475 547 31,900 523 Climbing Atlanta Center
Wed 06:50:08 PM 34.1567 -81.7381 78° East 496 571 33,000 338 Climbing Jacksonville Center
Wed 06:51:08 PM 34.1822 -81.5797 79° East 485 558 33,000  Level Jacksonville Center
Wed 06:52:08 PM 34.2117 -81.4186 77° East 485 558 33,000  Level Jacksonville Center
Wed 06:53:08 PM 34.2389 -81.2597 78° East 485 558 33,000  Level Jacksonville Center
Wed 06:54:08 PM 34.2619 -81.1011 80° East 485 558 33,000  Level Jacksonville Center
Wed 06:55:08 PM 34.2889 -80.9472 78° East 480 552 33,000  Level Jacksonville Center
Wed 06:56:08 PM 34.3575 -80.8025 60° Northeast 477 549 33,000  Level Jacksonville Center
Wed 06:57:08 PM 34.4344 -80.6722 54° Northeast 472 543 33,000  Level Jacksonville Center
Wed 06:58:08 PM 34.5072 -80.5417 56° Northeast 478 550 33,000  Level Jacksonville Center
Wed 06:59:39 PM 34.6136 -80.3411 57° Northeast 469 540 33,000  Level Washington Center
Wed 07:00:39 PM 34.6856 -80.2114 56° Northeast 469 540 33,000  Level Washington Center
Wed 07:01:39 PM 34.7531 -80.0789 58° Northeast 464 534 33,000  Level Washington Center
Wed 07:02:39 PM 34.8247 -79.9486 56° Northeast 464 534 33,000  Level Washington Center
Wed 07:03:39 PM 34.8942 -79.8156 58° Northeast 464 534 33,000  Level Washington Center
Wed 07:04:39 PM 34.9656 -79.6850 56° Northeast 464 534 33,000  Level Washington Center
Wed 07:05:39 PM 35.0325 -79.5542 58° Northeast 464 534 33,000  Level Washington Center
Wed 07:06:39 PM 35.1036 -79.4206 57° Northeast 464 534 33,000  Level Washington Center
Wed 07:07:39 PM 35.1725 -79.2892 57° Northeast 464 534 33,000  Level Washington Center
Wed 07:08:39 PM 35.2392 -79.1572 58° Northeast 464 534 33,000  Level Washington Center
Wed 07:09:39 PM 35.3075 -79.0281 57° Northeast 464 534 33,000  Level Washington Center
Wed 07:10:39 PM 35.3761 -78.8933 58° Northeast 464 534 33,000  Level Washington Center
Wed 07:11:39 PM 35.4442 -78.7636 57° Northeast 464 534 33,000  Level Washington Center
Wed 07:12:39 PM 35.5192 -78.6108 59° Northeast 471 542 33,000  Level Washington Center
Wed 07:13:39 PM 35.5892 -78.4783 57° Northeast 461 531 33,000  Level Washington Center
Wed 07:14:39 PM 35.6592 -78.3453 57° Northeast 461 531 33,000  Level Washington Center
Wed 07:15:39 PM 35.7225 -78.2144 59° Northeast 461 531 33,000  Level Washington Center
Wed 07:16:39 PM 35.7881 -78.0833 58° Northeast 455 524 33,000  Level Washington Center
Wed 07:17:39 PM 35.8531 -77.9547 58° Northeast 444 511 33,000  Level Washington Center
Wed 07:18:39 PM 35.9183 -77.8233 58° Northeast 444 511 33,000  Level Washington Center
Wed 07:19:39 PM 35.9833 -77.6917 59° Northeast 444 511 33,000  Level Washington Center
Wed 07:20:39 PM 36.0583 -77.5678 53° Northeast 444 511 33,000  Level Washington Center
Wed 07:21:39 PM 36.1356 -77.4489 51° Northeast 444 511 33,000  Level Washington Center
Wed 07:22:39 PM 36.1997 -77.3422 53° Northeast 439 505 33,000  Level Washington Center
Wed 07:23:39 PM 36.2764 -77.2153 53° Northeast 439 505 33,000  Level Washington Center
Wed 07:24:39 PM 36.3511 -77.0928 53° Northeast 439 505 33,000  Level Washington Center
Wed 07:25:39 PM 36.4278 -76.9706 52° Northeast 444 511 33,000  Level Washington Center
Wed 07:26:39 PM 36.5106 -76.8325 53° Northeast 449 517 33,000  Level Washington Center
Wed 07:27:39 PM 36.5806 -76.7197 52° Northeast 454 522 33,000  Level Washington Center
Wed 07:28:39 PM 36.6547 -76.5992 52° Northeast 454 522 33,000  Level Washington Center
Wed 07:29:39 PM 36.7369 -76.4603 54° Northeast 454 522 33,000  Level Washington Center
Wed 07:30:39 PM 36.8108 -76.3364 53° Northeast 454 522 33,000  Level Washington Center
Wed 07:31:39 PM 36.8889 -76.2125 52° Northeast 454 522 33,000  Level Washington Center
Wed 07:32:39 PM 36.9747 -76.1561 28° Northeast 432 497 33,000 -50 Level Washington Center
Wed 07:33:39 PM 37.1022 -76.0944 21° North 432 497 32,900  Descending Washington Center
Wed 07:34:39 PM 37.2150 -76.0353 23° Northeast 426 490 33,000 50 Climbing Washington Center
Wed 07:35:39 PM 37.3258 -75.9758 23° Northeast 426 490 33,000  Level Washington Center
Wed 07:36:39 PM 37.4386 -75.9136 24° Northeast 431 496 33,000  Level Washington Center
Wed 07:37:39 PM 37.5514 -75.8486 25° Northeast 438 504 33,000  Level Washington Center
Wed 07:38:39 PM 37.6558 -75.7703 31° Northeast 438 504 33,000  Level Washington Center
Wed 07:39:39 PM 37.7706 -75.6811 32° Northeast 438 504 33,000  Level Washington Center
Wed 07:40:39 PM 37.8769 -75.6075 29° Northeast 438 504 33,000  Level Washington Center
Wed 07:41:39 PM 37.9811 -75.5286 31° Northeast 433 498 33,000  Level Washington Center
Wed 07:42:39 PM 38.0856 -75.4492 31° Northeast 428 493 33,000  Level Washington Center
Wed 07:43:39 PM 38.1958 -75.3883 23° Northeast 423 487 33,000  Level Washington Center
Wed 07:44:39 PM 38.3042 -75.3192 27° Northeast 423 487 33,000  Level Washington Center
Wed 07:45:39 PM 38.4103 -75.2392 31° Northeast 433 498 33,000  Level Washington Center
Wed 07:46:39 PM 38.5206 -75.1725 25° Northeast 433 498 33,000 -650 Level Washington Center
Wed 07:47:39 PM 38.6308 -75.1000 27° Northeast 433 498 31,700 -1,450 Descending Washington Center
Wed 07:48:39 PM 38.7408 -75.0300 26° Northeast 433 498 30,100 -1,500 Descending Washington Center
Wed 07:49:39 PM 38.8553 -74.9597 26° Northeast 433 498 28,700 -1,550 Descending Washington Center
Wed 07:50:39 PM 38.9675 -74.8842 28° Northeast 438 504 27,000 -1,450 Descending Washington Center
Wed 07:51:39 PM 39.0775 -74.8161 26° Northeast 438 504 25,800 -1,400 Descending Washington Center
Wed 07:52:39 PM 39.1747 -74.7214 37° Northeast 438 504 24,200 -1,636 Descending Washington Center
Wed 07:54:35 PM 39.3381 -74.5450 40° Northeast 419 482 21,000 -1,559 Descending New York Center
Wed 07:55:36 PM 39.4244 -74.4500 40° Northeast 407 468 19,600 -1,388 Descending New York Center
Wed 07:56:36 PM 39.5131 -74.3525 40° Northeast 402 463 18,200 -814 Descending New York Center
Wed 07:57:34 PM 39.5972 -74.2597 40° Northeast 397 457 18,000 -555 Descending New York Center
Wed 07:58:35 PM 39.6897 -74.1564 41° Northeast 397 457 17,100 -1,574 Descending New York Center
Wed 07:59:36 PM 39.7694 -74.0686 40° Northeast 385 443 14,800 -2,339 Descending New York Center
Wed 08:00:33 PM 39.8403 -73.9933 39° Northeast 373 429 12,500 -1,916 Descending New York Center
Wed 08:01:35 PM 39.9275 -73.9272 30° Northeast 363 418 11,000 -744 Descending New York Center
Wed 08:02:34 PM 40.0147 -73.8661 28° Northeast 328 377 11,000 -182 Level New York Center
Wed 08:03:47 PM 40.0869 -73.8122 30° Northeast 303 349 10,600 -927 Descending New York Center
Wed 08:04:24 PM 40.1500 -73.7500 37° Northeast 295 339 9,300 -1,732 Descending New York TRACON
Wed 08:05:24 PM 40.2167 -73.7000 30° Northeast 291 335 7,800 -1,500 Descending New York TRACON
Wed 08:06:24 PM 40.2833 -73.6500 30° Northeast 277 319 6,300 -1,400 Descending New York TRACON
Wed 08:07:24 PM 40.3500 -73.6000 30° Northeast 259 298 5,000 -1,286 Descending New York TRACON
Wed 08:07:48 PM 40.3656 -73.5878 31° Northeast 271 312 4,500 -1,091 Descending New York Center
Wed 08:08:19 PM 40.4000 -73.5500 40° Northeast 257 296 4,000 -333 Descending New York TRACON
Wed 08:09:18 PM 40.4667 -73.5167 21° North 253 291 4,000  Level New York TRACON
Wed 08:10:18 PM 40.5167 -73.4667 37° Northeast 256 295 4,000  Level New York TRACON
Wed 08:11:24 PM 40.6000 -73.4500 North 252 290 4,000 -397 Level New York TRACON
Wed 08:12:19 PM 40.6500 -73.4667 346° North 247 284 3,200 -789 Descending New York TRACON
Wed 08:13:18 PM 40.7167 -73.5167 330° Northwest 250 288 2,500 -576 Descending New York TRACON
Wed 08:14:24 PM 40.7833 -73.5667 330° Northwest 233 268 2,000 -248 Descending New York TRACON
Wed 08:15:19 PM 40.7833 -73.6333 270° West 202 232 2,000  Level New York TRACON
Wed 08:16:19 PM 40.7500 -73.6667 217° Southwest 181 208 2,000  Level New York TRACON

Login

Don't have an account? Register now (free) for customized features, flight alerts, and more!